Weather observations for the past three days for
Branson
Imperial (Metric)
Date Time (cdt) Wind (mph) Vis. (mi.) Weather Sky Cond. Temperature (ºF) Relative Humidity Wind Chill (°F) Heat Index (°F) Pressure Precipitation (in)
Air Dwpt 6 hour altimeter (in) sea level (mb) 1 hr 3 hr 6 hr
Max. Min.
01 20:45 S 5 10.00 Fair CLR 86 64.4 49% 87 30.02 0.0
01 19:45 S 5 10.00 Fair CLR 86 62.6 46% 87 30.01 0.0
01 18:45 S 7 10.00 Fair CLR 93.2 62.6 36% 94 30.02 0.0
01 17:45 S 9 10.00 Fair CLR 96.8 62.6 32% 98 30.02 0.0
01 16:45 Calm 10.00 Mostly Cloudy BKN080 BKN100 95 62.6 34% 96 30.02 0.0
01 15:45 SE 7 10.00 Mostly Cloudy SCT075 BKN090 95 62.6 34% 96 30.04 0.0
01 14:45 NE 3 10.00 Mostly Cloudy BKN080 95 62.6 34% 96 30.05 0.0
01 13:45 Calm 10.00 Partly Cloudy SCT080 95 62.6 34% 96 30.06 0.0
01 12:45 SE 6 10.00 Partly Cloudy SCT080 95 64.4 36% 97 30.1 0.0
01 11:45 SW 6 10.00 Partly Cloudy SCT090 91.4 66.2 44% 94 30.13 0.0
01 10:45 S 6 10.00 Mostly Cloudy BKN090 91.4 66.2 44% 94 30.13 0.0
01 09:45 Calm 10.00 Partly Cloudy SCT090 86 68 55% 89 30.13 0.0
01 08:45 Calm 10.00 Fair CLR 84.2 68 58% 87 30.13 0.0
01 07:45 Calm 10.00 Fair CLR 80.6 68 66% 83 30.13 0.0
01 06:45 SE 3 10.00 Mostly Cloudy BKN090 73.4 68 83% 30.11 0.0
01 06:15 Calm 10.00 Fair CLR 68 66.2 94% 30.1 0.0
01 05:55 Calm 10.00 Fair CLR 71.6 66.2 83% 30.09 0.0
01 05:35 Calm 10.00 Fair CLR 71.6 66.2 83% 30.09 0.0
01 05:15 Calm 10.00 Fair CLR 73.4 66.2 78% 30.09 0.0
01 04:55 Calm 10.00 Fair CLR 71.6 66.2 83% 30.08 0.0
01 04:35 Calm 10.00 Fair CLR 71.6 66.2 83% 30.08 0.0
01 04:15 Calm 10.00 Fair CLR 73.4 66.2 78% 30.08 0.0
01 03:55 Calm 10.00 Fair CLR 73.4 66.2 78% 30.08 0.0
01 03:35 Calm 10.00 Fair CLR 73.4 66.2 78% 30.08 0.0
01 03:15 Calm 10.00 Fair CLR 75.2 66.2 74% 77 30.08 0.0
01 02:55 Calm 10.00 Fair CLR 77 66.2 69% 79 30.07 0.0
01 02:35 Calm 10.00 A Few Clouds FEW080 75.2 66.2 74% 77 30.08 0.0
01 02:15 Calm 10.00 Mostly Cloudy BKN080 77 66.2 69% 79 30.07 0.0
01 01:55 Calm 10.00 Mostly Cloudy BKN080 77 66.2 69% 79 30.07 0.0
01 01:35 S 3 10.00 Partly Cloudy SCT080 78.8 66.2 65% 81 30.08 0.0
01 01:15 S 6 10.00 Partly Cloudy SCT080 78.8 64.4 61% 81 30.08 0.0
01 00:55 S 6 10.00 Fair CLR 80.6 64.4 58% 82 30.08 0.0
01 00:35 S 7 10.00 Fair CLR 80.6 64.4 58% 82 30.07 0.0
01 00:15 S 6 10.00 Fair CLR 80.6 64.4 58% 82 30.07 0.0
31 23:55 S 5 10.00 Fair CLR 80.6 64.4 58% 82 30.07 0.0
31 23:35 S 6 10.00 Fair CLR 80.6 62.6 54% 82 30.07 0.0
31 23:15 S 5 10.00 Fair CLR 80.6 62.6 54% 82 30.07 0.0
31 22:55 Calm 10.00 Fair CLR 80.6 62.6 54% 82 30.07 0.0
31 22:35 S 5 10.00 Fair CLR 82.4 62.6 51% 83 30.07 0.0
31 22:15 SE 6 10.00 Fair CLR 82.4 62.6 51% 83 30.07 0.0
31 21:55 S 7 10.00 Fair CLR 84.2 62.6 48% 85 30.06 0.0
31 21:35 S 6 10.00 Fair CLR 84.2 62.6 48% 85 30.06 0.0
31 21:15 S 7 10.00 Fair CLR 84.2 62.6 48% 85 30.05 0.0
31 20:45 S 8 10.00 Fair CLR 86 62.6 46% 87 30.04 0.0
31 19:45 S 9 10.00 Fair CLR 89.6 62.6 41% 90 30.02 0.0
31 18:45 S 7 10.00 Fair CLR 93.2 59 32% 93 30.02 0.0
31 17:45 S 9 10.00 Fair CLR 96.8 59 28% 96 30.02 0.0
31 16:45 S 5 10.00 Fair CLR 98.6 60.8 29% 99 30.03 0.0
31 15:45 SE 5 10.00 Partly Cloudy SCT080 98.6 62.6 31% 100 30.03 0.0
31 14:45 SE 8 10.00 Overcast OVC080 95 60.8 32% 95 30.05 0.0
31 13:45 SE 6 10.00 A Few Clouds FEW080 96.8 59 28% 96 30.07 0.0
31 12:45 NW 6 10.00 Mostly Cloudy BKN085 BKN090 93.2 62.6 36% 94 30.09 0.0
31 11:45 Calm 10.00 Partly Cloudy SCT085 93.2 64.4 39% 95 30.1 0.0
31 09:45 Calm 10.00 Fair CLR 86 66.2 52% 88 30.12 0.0
31 08:45 Calm 10.00 Fair CLR 82.4 66.2 58% 85 30.11 0.0
31 07:45 Calm 10.00 Fair CLR 75.2 64.4 69% 77 30.09 0.0
31 06:45 Calm 10.00 Fair CLR 71.6 64.4 78% 30.08 0.0
31 06:15 SE 5 10.00 Fair CLR 69.8 62.6 78% 30.06 0.0
31 05:55 Calm 10.00 Fair CLR 68 62.6 83% 30.06 0.0
31 05:35 Calm 10.00 Fair CLR 69.8 62.6 78% 30.06 0.0
31 05:15 Calm 10.00 Fair CLR 69.8 62.6 78% 30.06 0.0
31 04:55 Calm 10.00 Fair CLR 66.2 62.6 88% 30.05 0.0
31 04:35 Calm 10.00 Fair CLR 68 62.6 83% 30.06 0.0
31 04:15 Calm 10.00 Fair CLR 68 62.6 83% 30.05 0.0
31 03:55 Calm 10.00 Fair CLR 69.8 62.6 78% 30.05 0.0
31 03:35 Calm 10.00 Fair CLR 69.8 62.6 78% 30.04 0.0
31 03:15 Calm 10.00 Fair CLR 71.6 60.8 69% 30.04 0.0
31 02:55 Calm 10.00 Fair CLR 71.6 60.8 69% 30.04 0.0
31 02:35 Calm 10.00 Fair CLR 73.4 60.8 65% 30.04 0.0
31 02:15 Calm 10.00 Fair CLR 75.2 60.8 61% 77 30.04 0.0
31 01:55 Calm 10.00 Fair CLR 77 60.8 57% 79 30.05 0.0
31 01:35 S 6 10.00 Fair CLR 77 60.8 57% 79 30.05 0.0
31 01:15 S 6 10.00 Fair CLR 77 60.8 57% 79 30.05 0.0
31 00:55 S 8 10.00 Fair CLR 77 60.8 57% 79 30.05 0.0
31 00:35 S 7 10.00 Fair CLR 77 62.6 61% 79 30.04 0.0
31 00:15 S 7 10.00 Fair CLR 77 62.6 61% 79 30.04 0.0
30 23:55 SE 8 10.00 Fair CLR 77 62.6 61% 79 30.04 0.0
30 23:35 SE 8 10.00 Fair CLR 78.8 62.6 58% 80 30.04 0.0
30 23:15 SE 9 10.00 Fair CLR 78.8 62.6 58% 80 30.03 0.0
30 22:55 SE 9 10.00 Fair CLR 80.6 62.6 54% 82 30.03 0.0
30 22:35 SE 9 10.00 Fair CLR 80.6 62.6 54% 82 30.03 0.0
30 22:15 SE 10 10.00 Fair CLR 82.4 62.6 51% 83 30.03 0.0
30 21:55 SE 9 10.00 Fair CLR 82.4 62.6 51% 83 30.03 0.0
30 21:35 SE 9 10.00 Fair CLR 82.4 62.6 51% 83 30.03 0.0
30 21:15 SE 8 10.00 Fair CLR 82.4 62.6 51% 83 30.02 0.0
30 20:45 SE 9 10.00 Fair CLR 84.2 62.6 48% 85 30.02 0.0
30 19:45 SE 12 10.00 Fair CLR 86 50 29% 84 30.01 0.0
30 18:45 SE 6 10.00 Fair CLR 91.4 59 34% 91 30.01 0.0
30 17:45 SE 9 10.00 Fair CLR 93.2 59 32% 93 30.01 0.0
30 16:45 SE 8 10.00 Mostly Cloudy BKN080 96.8 59 28% 96 30 0.0
30 15:45 S 10 10.00 Fair CLR 98.6 59 27% 98 30.01 0.0
30 14:45 S 7 10.00 Fair CLR 95 59 30% 94 30.03 0.0
30 13:45 S 7 10.00 Fair CLR 95 60.8 32% 95 30.05 0.0
30 12:45 SE 5 10.00 Fair CLR 93.2 60.8 34% 93 30.06 0.0
30 11:45 SE 5 10.00 Fair CLR 91.4 60.8 36% 91 30.09 0.0
30 10:45 S 6 10.00 Fair CLR 89.6 62.6 41% 90 30.09 0.0
30 09:45 S 3 10.00 Fair CLR 84.2 60.8 45% 84 30.09 0.0
30 08:45 S 5 10.00 Fair CLR 82.4 60.8 48% 83 30.08 0.0
30 07:45 Calm 10.00 Fair CLR 71.6 59 65% 30.09 0.0
30 06:45 Calm 10.00 Fair CLR 66.2 59 78% 30.08 0.0
30 06:15 Calm 10.00 Partly Cloudy SCT065 68 59 73% 30.07 0.0
30 05:55 SE 6 10.00 A Few Clouds FEW065 68 57.2 69% 30.06 0.0
30 05:35 SE 6 10.00 A Few Clouds FEW065 66.2 59 78% 30.07 0.0
30 05:15 Calm 10.00 Fair CLR 66.2 59 78% 30.07 0.0
30 04:55 Calm 10.00 Fair CLR 66.2 59 78% 30.07 0.0
30 04:35 Calm 10.00 Fair CLR 66.2 59 78% 30.07 0.0
30 04:15 Calm 10.00 Fair CLR 68 59 73% 30.07 0.0
30 03:55 Calm 10.00 Fair CLR 71.6 59 65% 30.07 0.0
30 03:35 S 3 10.00 Fair CLR 73.4 57.2 57% 30.07 0.0
30 03:15 S 6 10.00 Fair CLR 73.4 59 61% 30.06 0.0
30 02:55 S 6 10.00 Fair CLR 73.4 59 61% 30.07 0.0
30 02:35 S 5 10.00 Fair CLR 73.4 59 61% 30.07 0.0
30 02:15 Calm 10.00 Fair CLR 75.2 59 57% 78 30.07 0.0
30 01:55 S 8 10.00 Fair CLR 75.2 59 57% 78 30.06 0.0
30 01:35 S 7 10.00 Fair CLR 75.2 59 57% 78 30.06 0.0
30 01:15 S 7 10.00 Fair CLR 75.2 59 57% 78 30.06 0.0
30 00:55 SE 8 10.00 Fair CLR 75.2 59 57% 78 30.06 0.0
30 00:35 S 7 10.00 A Few Clouds FEW055 75.2 59 57% 78 30.06 0.0
30 00:15 SE 7 10.00 A Few Clouds FEW055 77 59 54% 79 30.06 0.0
29 23:55 S 6 10.00 Fair CLR 77 59 54% 79 30.07 0.0
29 23:35 S 6 10.00 Fair CLR 77 59 54% 79 30.07 0.0
29 23:15 S 6 10.00 Fair CLR 77 60.8 57% 79 30.07 0.0
29 22:55 S 6 10.00 Fair CLR 77 60.8 57% 79 30.07 0.0
29 22:35 S 6 10.00 Fair CLR 77 60.8 57% 79 30.07 0.0
29 22:15 SE 6 10.00 Fair CLR 77 62.6 61% 79 30.07 0.0
29 21:55 SE 7 10.00 Fair CLR 78.8 60.8 54% 80 30.07 0.0
29 21:35 SE 7 10.00 Fair CLR 80.6 59 48% 81 30.07 0.0
29 21:15 SE 7 10.00 Fair CLR 80.6 57.2 45% 81 30.06 0.0
Date Time (cdt) Wind (mph) Vis. (mi.) Weather Sky Cond. Air Dwpt Max. Min. Relative Humidity Wind Chill (°F) Heat Index (°F) altimeter (in) sea level (mb) 1 hr 3 hr 6 hr
6 hour
Temperature (ºF) Pressure Precipitation (in)